Time;durP1;ratioP1;P1;durP2;ratioP2;P2;SDS_P1;SDS_P2;PMS_P1;PMS_P2;Temp;Humidity;BMP_temperature;BMP_pressure;BME280_temperature;BME280_humidity;BME280_pressure;Samples;Min_cycle;Max_cycle;Signal;HPM_P1;HPM_P2
2023/07/13 00:01:56;;;;;;;7.80;4.35;;;21.80;99.90;;;;;;5070308;28;20048;-41
2023/07/13 00:04:27;;;;;;;4.93;4.43;;;21.80;99.90;;;;;;5066720;28;20056;-41
2023/07/13 00:06:57;;;;;;;8.00;4.80;;;21.80;99.90;;;;;;5069363;28;20049;-40
2023/07/13 00:09:27;;;;;;;7.90;4.93;;;21.70;99.90;;;;;;5062787;28;20135;-41
2023/07/13 00:11:56;;;;;;;5.90;4.65;;;21.70;99.90;;;;;;5065502;28;20044;-41
2023/07/13 00:14:25;;;;;;;5.38;4.72;;;21.60;99.90;;;;;;5071038;28;20128;-48
2023/07/13 00:16:53;;;;;;;6.25;4.75;;;21.60;99.90;;;;;;5058522;28;20045;-40
2023/07/13 00:19:20;;;;;;;5.10;4.60;;;21.70;99.90;;;;;;5068423;28;20041;-38
2023/07/13 00:21:48;;;;;;;6.78;4.82;;;21.60;99.90;;;;;;5067417;28;20192;-41
2023/07/13 00:24:23;;;;;;;13.18;4.95;;;21.50;99.90;;;;;;5048301;28;20045;-40
2023/07/13 00:26:51;;;;;;;8.13;4.28;;;21.40;99.90;;;;;;5067276;28;20507;-42
2023/07/13 00:29:20;;;;;;;7.43;4.88;;;21.40;99.90;;;;;;5075343;28;20144;-42
2023/07/13 00:31:48;;;;;;;5.40;4.60;;;21.40;99.90;;;;;;5068949;28;20543;-42
2023/07/13 00:34:16;;;;;;;6.90;4.63;;;21.40;99.90;;;;;;5058182;28;20047;-40
2023/07/13 00:36:43;;;;;;;5.95;4.90;;;21.30;99.90;;;;;;5070042;28;20056;-38
2023/07/13 00:39:12;;;;;;;5.72;4.80;;;21.30;99.90;;;;;;5067804;28;20043;-43
2023/07/13 00:41:40;;;;;;;5.13;4.63;;;21.30;99.90;;;;;;5058143;28;20444;-42
2023/07/13 00:44:14;;;;;;;6.55;4.50;;;21.20;99.90;;;;;;5064234;28;20513;-40
2023/07/13 00:46:41;;;;;;;5.40;4.50;;;21.30;99.90;;;;;;5053737;28;20045;-42
2023/07/13 00:49:21;;;;;;;6.07;4.45;;;21.20;99.90;;;;;;5067662;28;20056;-39
2023/07/13 00:51:53;;;;;;;5.32;4.65;;;21.30;99.90;;;;;;5064739;28;20075;-43
2023/07/13 00:54:26;;;;;;;5.70;4.55;;;21.20;99.90;;;;;;5044347;28;20051;-41
2023/07/13 00:56:57;;;;;;;5.10;4.50;;;21.20;99.90;;;;;;5055227;28;20091;-41
2023/07/13 00:59:25;;;;;;;5.47;4.60;;;21.20;99.90;;;;;;5064500;28;20048;-42
2023/07/13 01:01:54;;;;;;;7.13;4.75;;;21.20;99.90;;;;;;5061940;28;20536;-39
2023/07/13 01:04:24;;;;;;;6.38;4.60;;;21.10;99.90;;;;;;5045407;28;20098;-40
2023/07/13 01:06:52;;;;;;;5.30;4.80;;;21.10;99.90;;;;;;5065632;28;20604;-41
2023/07/13 01:09:21;;;;;;;7.63;4.70;;;21.10;99.90;;;;;;5070558;28;20082;-40
2023/07/13 01:11:49;;;;;;;5.97;4.43;;;21.10;99.90;;;;;;5039053;28;20406;-41
2023/07/13 01:14:16;;;;;;;7.53;4.40;;;20.90;99.90;;;;;;5069552;28;20484;-38
2023/07/13 01:16:47;;;;;;;6.80;4.80;;;20.90;99.90;;;;;;5080835;28;20048;-41
2023/07/13 01:19:36;;;;;;;6.00;4.50;;;20.80;99.90;;;;;;5050332;28;20477;-42
2023/07/13 01:22:26;;;;;;;5.88;4.53;;;20.80;99.90;;;;;;5073495;28;20097;-42
2023/07/13 01:24:54;;;;;;;6.30;4.40;;;20.70;99.90;;;;;;5045633;28;20151;-41
2023/07/13 01:27:25;;;;;;;5.90;4.50;;;20.70;99.90;;;;;;5068121;28;20086;-40
2023/07/13 01:30:01;;;;;;;5.13;4.63;;;20.70;99.90;;;;;;5061013;28;20045;-40
2023/07/13 01:32:32;;;;;;;5.00;4.50;;;20.60;99.90;;;;;;5072707;28;20095;-43
2023/07/13 01:35:00;;;;;;;6.15;4.63;;;20.60;99.90;;;;;;5068017;28;20044;-41
2023/07/13 01:37:27;;;;;;;6.68;4.30;;;20.50;99.90;;;;;;5041426;28;20060;-41
2023/07/13 01:39:54;;;;;;;5.57;4.57;;;20.50;99.90;;;;;;5065855;28;20446;-42
2023/07/13 01:42:22;;;;;;;6.10;4.20;;;20.40;99.90;;;;;;5039216;28;20538;-40
2023/07/13 01:44:49;;;;;;;5.80;4.60;;;20.40;99.90;;;;;;5064831;28;20068;-39
2023/07/13 01:47:17;;;;;;;6.25;4.40;;;20.40;99.90;;;;;;5059588;28;20103;-39
2023/07/13 01:49:47;;;;;;;5.75;4.60;;;20.20;99.90;;;;;;5057239;28;20059;-41
2023/07/13 01:52:14;;;;;;;4.97;4.20;;;20.20;99.90;;;;;;5055284;28;20511;-41
2023/07/13 01:54:41;;;;;;;5.80;4.35;;;20.10;99.90;;;;;;5065429;28;20100;-42
2023/07/13 01:57:09;;;;;;;6.03;4.65;;;20.10;99.90;;;;;;5045100;28;20063;-40
2023/07/13 01:59:36;;;;;;;6.95;4.32;;;20.00;99.90;;;;;;5055737;28;20417;-42
2023/07/13 02:02:06;;;;;;;4.93;4.20;;;20.00;99.90;;;;;;5033614;28;20045;-42
2023/07/13 02:04:34;;;;;;;5.53;4.50;;;20.00;99.90;;;;;;5059903;28;20052;-41
2023/07/13 02:07:01;;;;;;;4.80;4.40;;;19.90;99.90;;;;;;5057842;28;20434;-43
2023/07/13 02:09:29;;;;;;;9.30;4.82;;;19.90;99.90;;;;;;5059513;28;20136;-42
2023/07/13 02:11:56;;;;;;;5.22;4.50;;;19.80;99.90;;;;;;5057029;28;20125;-42
2023/07/13 02:14:30;;;;;;;5.13;4.35;;;19.80;99.90;;;;;;5035505;28;20069;-39
2023/07/13 02:16:57;;;;;;;5.20;4.47;;;19.80;99.90;;;;;;5064554;28;20033;-42
2023/07/13 02:19:24;;;;;;;6.80;4.45;;;19.70;99.90;;;;;;5069825;28;20078;-39
2023/07/13 02:21:52;;;;;;;5.47;4.72;;;19.70;99.90;;;;;;5069082;28;20163;-42
2023/07/13 02:24:20;;;;;;;6.82;4.40;;;19.70;99.90;;;;;;5038779;28;20413;-41
2023/07/13 02:26:48;;;;;;;6.72;4.30;;;19.60;99.90;;;;;;5041928;28;20057;-43
2023/07/13 02:29:15;;;;;;;5.78;4.38;;;19.60;99.90;;;;;;5065862;28;20079;-41
2023/07/13 02:31:45;;;;;;;5.10;4.60;;;19.60;99.90;;;;;;5044175;28;20049;-43
2023/07/13 02:34:12;;;;;;;4.90;4.38;;;19.50;99.90;;;;;;5064699;28;20577;-42
2023/07/13 02:36:40;;;;;;;4.43;4.03;;;19.50;99.90;;;;;;5065267;28;20114;-41
2023/07/13 02:39:08;;;;;;;4.70;4.20;;;19.40;99.90;;;;;;5036509;28;20046;-42
2023/07/13 02:41:35;;;;;;;7.10;4.50;;;19.40;99.90;;;;;;5056543;28;20052;-41
2023/07/13 02:44:03;;;;;;;5.97;4.57;;;19.30;99.90;;;;;;5060611;28;20045;-40
2023/07/13 02:46:33;;;;;;;7.47;4.75;;;19.30;99.90;;;;;;5062364;28;20063;-41
2023/07/13 02:49:00;;;;;;;5.95;4.47;;;19.20;99.90;;;;;;5035874;28;20496;-42
2023/07/13 02:51:28;;;;;;;6.10;4.38;;;19.10;99.90;;;;;;5056044;28;20073;-42
2023/07/13 02:53:56;;;;;;;7.78;4.45;;;19.10;99.90;;;;;;5035662;28;20042;-43
2023/07/13 02:56:25;;;;;;;6.07;4.60;;;19.10;99.90;;;;;;5045480;28;20051;-42
2023/07/13 02:58:54;;;;;;;4.80;4.30;;;18.90;99.90;;;;;;5063492;28;20044;-44
2023/07/13 03:01:22;;;;;;;5.90;4.22;;;18.90;99.90;;;;;;5042436;28;20032;-42
2023/07/13 03:03:51;;;;;;;5.47;4.43;;;18.80;99.90;;;;;;5031923;28;20065;-38
2023/07/13 03:06:21;;;;;;;7.00;4.60;;;18.80;99.90;;;;;;5036750;28;20541;-42
2023/07/13 03:08:51;;;;;;;5.50;4.35;;;18.70;99.90;;;;;;5058328;28;20457;-42
2023/07/13 03:11:20;;;;;;;5.68;4.90;;;18.70;99.90;;;;;;5036504;28;20111;-42
2023/07/13 03:13:55;;;;;;;5.43;4.88;;;18.70;99.90;;;;;;5037880;28;20144;-42
2023/07/13 03:16:23;;;;;;;5.88;4.53;;;18.70;99.90;;;;;;5037146;28;20050;-42
2023/07/13 03:18:52;;;;;;;5.85;5.00;;;18.70;99.90;;;;;;5041201;28;20632;-42
2023/07/13 03:21:20;;;;;;;6.75;4.57;;;18.60;99.90;;;;;;5060296;28;20127;-43
2023/07/13 03:23:47;;;;;;;8.55;4.78;;;18.60;99.90;;;;;;5061770;28;20143;-43
2023/07/13 03:26:18;;;;;;;5.00;4.30;;;18.60;99.90;;;;;;5055150;28;20057;-42
2023/07/13 03:28:46;;;;;;;7.43;4.55;;;18.50;99.90;;;;;;5036997;28;20053;-41
2023/07/13 03:31:20;;;;;;;5.30;4.80;;;18.50;99.90;;;;;;5035927;28;20046;-43
2023/07/13 03:33:48;;;;;;;5.80;4.50;;;18.50;99.90;;;;;;5037227;28;20184;-43
2023/07/13 03:36:23;;;;;;;6.82;4.40;;;18.50;99.90;;;;;;5042071;28;20147;-42
2023/07/13 03:38:57;;;;;;;5.20;4.43;;;18.50;99.90;;;;;;5040930;28;20044;-43
2023/07/13 03:41:29;;;;;;;7.03;4.88;;;18.50;99.90;;;;;;5037586;28;20045;-42
2023/07/13 03:43:56;;;;;;;5.10;4.30;;;18.40;99.90;;;;;;5043738;28;20068;-43
2023/07/13 03:46:27;;;;;;;6.63;4.40;;;18.40;99.90;;;;;;5040424;28;20502;-42
2023/07/13 03:48:54;;;;;;;7.55;4.30;;;18.40;99.90;;;;;;5049478;28;20064;-42
2023/07/13 03:51:22;;;;;;;6.05;4.63;;;18.40;99.90;;;;;;5061743;28;20056;-42
2023/07/13 03:53:49;;;;;;;4.70;3.95;;;18.30;99.90;;;;;;5062416;28;20056;-40
2023/07/13 03:56:19;;;;;;;5.10;4.28;;;18.30;99.90;;;;;;5046379;28;20044;-41
2023/07/13 03:58:49;;;;;;;5.50;4.22;;;18.30;99.90;;;;;;5044983;28;20037;-41
2023/07/13 04:01:21;;;;;;;8.63;4.57;;;18.30;99.90;;;;;;5042765;28;20049;-42
2023/07/13 04:03:50;;;;;;;6.15;4.40;;;18.40;99.90;;;;;;5064765;28;20041;-42
2023/07/13 04:06:23;;;;;;;7.35;4.30;;;18.30;99.90;;;;;;5043658;28;20098;-42
2023/07/13 04:08:56;;;;;;;6.82;4.57;;;18.30;99.90;;;;;;5066827;28;20044;-41
2023/07/13 04:11:29;;;;;;;6.20;4.35;;;18.30;99.90;;;;;;5044688;28;20057;-40
2023/07/13 04:13:57;;;;;;;5.15;4.55;;;18.30;99.90;;;;;;5064951;28;20118;-43
2023/07/13 04:16:25;;;;;;;7.40;4.20;;;18.40;99.90;;;;;;5050247;28;20132;-40
2023/07/13 04:18:59;;;;;;;7.82;4.30;;;18.30;99.90;;;;;;5060252;28;20096;-42
2023/07/13 04:21:29;;;;;;;5.28;4.65;;;18.30;99.90;;;;;;5057559;28;20040;-43
2023/07/13 04:23:57;;;;;;;5.25;4.65;;;18.30;99.90;;;;;;5060228;28;20049;-42
2023/07/13 04:26:24;;;;;;;6.07;4.55;;;18.30;99.90;;;;;;5058835;28;20122;-39
2023/07/13 04:28:52;;;;;;;7.85;5.07;;;18.30;99.90;;;;;;5059614;28;20061;-41
2023/07/13 04:31:20;;;;;;;6.10;4.93;;;18.30;99.90;;;;;;5063907;28;20472;-40
2023/07/13 04:33:48;;;;;;;7.35;4.60;;;18.30;99.90;;;;;;5072685;28;20056;-41
2023/07/13 04:36:16;;;;;;;5.35;4.80;;;18.30;99.90;;;;;;5064964;28;20060;-42
2023/07/13 04:38:44;;;;;;;6.28;4.70;;;18.40;99.90;;;;;;5067129;28;20049;-44
2023/07/13 04:41:13;;;;;;;6.65;4.85;;;18.40;99.90;;;;;;5056864;28;20116;-44
2023/07/13 04:43:40;;;;;;;6.38;4.88;;;18.40;99.90;;;;;;5058306;28;20164;-39
2023/07/13 04:46:11;;;;;;;7.25;4.72;;;18.50;99.90;;;;;;5048901;28;20068;-41
2023/07/13 04:48:39;;;;;;;5.78;4.70;;;18.50;99.90;;;;;;5037271;28;20518;-38
2023/07/13 04:51:07;;;;;;;5.90;4.90;;;18.60;99.90;;;;;;5051872;28;20208;-43
2023/07/13 04:53:34;;;;;;;7.97;5.05;;;18.60;99.90;;;;;;5059772;28;20048;-42
2023/07/13 04:56:03;;;;;;;5.70;4.85;;;18.70;99.90;;;;;;5048039;28;20132;-43
2023/07/13 04:58:31;;;;;;;7.03;4.75;;;18.70;99.90;;;;;;5055668;28;20049;-40
2023/07/13 05:01:03;;;;;;;5.88;4.97;;;18.70;99.90;;;;;;5057432;28;20036;-43
2023/07/13 05:03:31;;;;;;;7.70;5.75;;;18.80;99.90;;;;;;5058764;28;20057;-39
2023/07/13 05:06:04;;;;;;;6.28;5.20;;;18.80;99.90;;;;;;5063605;28;20049;-41
2023/07/13 05:08:32;;;;;;;5.55;4.40;;;18.80;99.90;;;;;;5060160;28;20098;-39
2023/07/13 05:11:01;;;;;;;6.97;4.85;;;18.90;99.90;;;;;;5058808;28;20044;-40
2023/07/13 05:13:29;;;;;;;6.00;4.85;;;18.90;99.90;;;;;;5069089;28;20446;-41
2023/07/13 05:15:59;;;;;;;6.25;5.05;;;19.00;99.90;;;;;;5071247;28;20405;-41
2023/07/13 05:18:27;;;;;;;6.32;5.38;;;19.00;99.90;;;;;;5061019;28;20051;-43
2023/07/13 05:21:03;;;;;;;6.97;5.10;;;19.10;99.90;;;;;;5061938;28;20421;-42
2023/07/13 05:23:31;;;;;;;10.55;5.78;;;19.00;99.90;;;;;;5071822;28;20051;-42
2023/07/13 05:25:59;;;;;;;6.85;5.07;;;19.00;99.90;;;;;;5055968;28;20053;-40
2023/07/13 05:28:27;;;;;;;7.25;5.47;;;19.00;99.90;;;;;;5067219;28;20052;-43
2023/07/13 05:30:56;;;;;;;7.38;5.78;;;19.10;99.90;;;;;;5069197;28;20080;-43
2023/07/13 05:33:25;;;;;;;7.75;5.85;;;19.20;99.90;;;;;;5069316;28;20078;-40
2023/07/13 05:35:52;;;;;;;6.72;5.38;;;19.30;99.90;;;;;;5073564;28;20527;-41
2023/07/13 05:38:20;;;;;;;8.25;5.07;;;19.40;99.90;;;;;;5065802;28;20048;-42
2023/07/13 05:40:48;;;;;;;6.45;5.28;;;19.40;99.90;;;;;;5073097;28;20128;-42
2023/07/13 05:43:15;;;;;;;5.68;5.18;;;19.50;99.90;;;;;;5069820;28;20067;-42
2023/07/13 05:45:43;;;;;;;7.63;5.55;;;19.60;99.90;;;;;;5067698;28;20044;-42
2023/07/13 05:48:10;;;;;;;6.20;5.15;;;19.70;99.90;;;;;;5061559;28;20052;-43
2023/07/13 05:50:38;;;;;;;6.63;5.07;;;19.90;99.90;;;;;;5049933;28;20291;-41
2023/07/13 05:53:06;;;;;;;9.93;5.45;;;20.00;99.90;;;;;;5053414;28;20052;-39
2023/07/13 05:55:33;;;;;;;6.38;4.93;;;20.00;99.90;;;;;;5054457;28;20123;-42
2023/07/13 05:58:01;;;;;;;7.70;5.40;;;20.00;99.90;;;;;;5051477;28;20095;-39
2023/07/13 06:00:28;;;;;;;8.20;5.22;;;20.00;99.90;;;;;;5059409;28;20463;-40
2023/07/13 06:02:58;;;;;;;5.38;4.88;;;19.90;99.90;;;;;;5061437;28;20033;-40
2023/07/13 06:05:28;;;;;;;5.82;5.32;;;19.90;99.90;;;;;;5063806;28;20471;-42
2023/07/13 06:07:55;;;;;;;7.85;4.97;;;20.00;99.90;;;;;;5056631;28;20060;-40
2023/07/13 06:10:22;;;;;;;8.05;5.50;;;20.00;99.90;;;;;;5073116;28;20131;-43
2023/07/13 06:12:50;;;;;;;5.57;4.50;;;20.10;99.90;;;;;;5072058;28;20079;-39
2023/07/13 06:15:17;;;;;;;8.07;4.82;;;20.20;99.90;;;;;;5036057;28;20044;-40
2023/07/13 06:17:45;;;;;;;5.28;4.63;;;20.30;99.90;;;;;;5061421;28;20044;-40
2023/07/13 06:20:12;;;;;;;7.45;4.85;;;20.10;99.90;;;;;;5060131;28;20071;-42
2023/07/13 06:22:40;;;;;;;6.28;4.78;;;20.10;99.90;;;;;;5061050;28;20048;-42
2023/07/13 06:25:08;;;;;;;8.20;5.13;;;20.40;99.90;;;;;;5053743;28;20059;-45
2023/07/13 06:27:35;;;;;;;8.05;5.30;;;20.70;99.90;;;;;;5062351;28;20076;-43
2023/07/13 06:30:03;;;;;;;5.68;5.10;;;20.90;99.90;;;;;;5068461;28;20045;-43
2023/07/13 06:32:30;;;;;;;9.07;5.53;;;20.80;99.90;;;;;;5064605;28;20059;-39
2023/07/13 06:34:58;;;;;;;5.72;5.05;;;21.10;99.90;;;;;;5067510;28;20068;-42
2023/07/13 06:37:25;;;;;;;7.28;5.22;;;21.30;99.90;;;;;;5061930;28;20044;-39
2023/07/13 06:39:52;;;;;;;6.25;5.65;;;21.10;99.90;;;;;;5051848;28;20116;-42
2023/07/13 06:42:19;;;;;;;7.55;5.25;;;21.10;99.90;;;;;;5068140;28;20044;-43
2023/07/13 06:44:47;;;;;;;5.68;4.72;;;21.10;99.90;;;;;;5056446;28;20111;-41
2023/07/13 06:47:14;;;;;;;8.10;5.00;;;21.00;99.90;;;;;;5053176;28;20056;-41
2023/07/13 06:49:42;;;;;;;6.72;4.90;;;20.80;99.90;;;;;;5063390;28;20045;-41
2023/07/13 06:52:09;;;;;;;10.98;5.03;;;20.50;99.90;;;;;;5070371;28;20054;-42
2023/07/13 06:54:36;;;;;;;7.65;4.95;;;20.60;99.90;;;;;;5057302;28;20063;-39
2023/07/13 06:57:04;;;;;;;6.85;4.82;;;20.70;99.90;;;;;;5074067;28;20454;-40
2023/07/13 06:59:31;;;;;;;6.28;5.10;;;20.80;99.90;;;;;;5064951;28;20076;-42
2023/07/13 07:01:59;;;;;;;7.80;5.22;;;20.90;99.90;;;;;;5061308;28;20119;-39
2023/07/13 07:04:26;;;;;;;7.63;4.75;;;20.90;99.90;;;;;;5057739;28;20429;-43
2023/07/13 07:06:54;;;;;;;7.40;5.15;;;21.10;99.90;;;;;;5061356;28;20099;-40
2023/07/13 07:09:25;;;;;;;8.75;5.38;;;21.30;99.90;;;;;;5068315;28;20064;-43
2023/07/13 07:11:52;;;;;;;8.20;5.30;;;21.40;99.90;;;;;;5059438;28;20068;-42
2023/07/13 07:14:31;;;;;;;9.98;5.57;;;21.50;99.90;;;;;;5058486;28;20041;-43
2023/07/13 07:16:58;;;;;;;7.70;5.18;;;21.30;99.90;;;;;;5060901;28;20048;-43
2023/07/13 07:19:29;;;;;;;6.80;5.50;;;21.50;99.90;;;;;;5056066;28;20433;-43
2023/07/13 07:21:56;;;;;;;6.30;5.45;;;21.60;99.90;;;;;;5060856;28;20064;-42
2023/07/13 07:24:24;;;;;;;7.43;5.60;;;21.50;99.90;;;;;;5055669;28;20052;-43
2023/07/13 07:26:51;;;;;;;7.22;5.65;;;21.60;99.90;;;;;;5068557;28;20185;-40
2023/07/13 07:29:22;;;;;;;8.40;5.72;;;21.60;99.90;;;;;;5065939;28;20512;-42
2023/07/13 07:31:53;;;;;;;7.67;5.70;;;21.70;99.90;;;;;;5068011;23;20067;-43
2023/07/13 07:34:24;;;;;;;7.18;5.15;;;21.70;99.90;;;;;;5062852;28;20060;-40
2023/07/13 07:36:53;;;;;;;6.63;5.57;;;21.70;99.90;;;;;;5068553;28;20087;-44
2023/07/13 07:39:23;;;;;;;6.65;5.78;;;21.50;99.90;;;;;;5066416;28;20121;-39
2023/07/13 07:41:50;;;;;;;9.88;5.53;;;21.60;99.90;;;;;;5065148;28;20041;-41
2023/07/13 07:44:20;;;;;;;7.18;5.72;;;21.60;99.90;;;;;;5059230;28;20045;-42
2023/07/13 07:46:49;;;;;;;7.10;5.50;;;21.40;99.90;;;;;;5058610;28;20420;-40
2023/07/13 07:49:16;;;;;;;9.52;5.55;;;21.50;99.90;;;;;;5060406;28;20048;-43
2023/07/13 07:51:43;;;;;;;9.40;5.60;;;21.50;99.90;;;;;;5054875;28;20101;-44
2023/07/13 07:54:11;;;;;;;7.30;5.20;;;21.60;99.90;;;;;;5062251;28;20052;-40
2023/07/13 07:56:48;;;;;;;7.82;5.30;;;21.70;99.90;;;;;;5051385;28;20045;-43
2023/07/13 07:59:37;;;;;;;6.65;5.57;;;21.70;99.90;;;;;;5061373;28;20100;-41
2023/07/13 08:02:10;;;;;;;11.38;5.78;;;21.80;99.90;;;;;;5052980;28;20132;-45
2023/07/13 08:04:57;;;;;;;7.50;5.90;;;21.80;99.90;;;;;;5058621;28;20155;-41
2023/07/13 08:07:29;;;;;;;6.30;5.72;;;21.90;99.90;;;;;;5057590;28;20061;-43
2023/07/13 08:09:57;;;;;;;6.60;5.50;;;22.00;99.90;;;;;;5058203;28;20127;-43
2023/07/13 08:12:24;;;;;;;6.35;5.60;;;22.00;99.90;;;;;;5058558;28;20041;-42
2023/07/13 08:14:57;;;;;;;6.15;5.45;;;22.00;99.90;;;;;;5061060;28;20040;-44
2023/07/13 08:17:25;;;;;;;10.30;5.70;;;22.10;99.90;;;;;;5057680;28;20047;-44
2023/07/13 08:19:53;;;;;;;7.07;6.25;;;22.10;99.90;;;;;;5058245;28;20505;-42
2023/07/13 08:22:20;;;;;;;8.13;5.28;;;22.10;99.90;;;;;;5058263;28;20037;-45
2023/07/13 08:24:55;;;;;;;7.97;5.65;;;22.10;99.90;;;;;;5056566;28;20052;-46
2023/07/13 08:27:24;;;;;;;9.35;6.70;;;22.20;99.90;;;;;;5057529;28;20045;-41
2023/07/13 08:29:52;;;;;;;5.97;5.38;;;22.20;99.90;;;;;;5062759;28;20044;-43
2023/07/13 08:32:22;;;;;;;6.20;5.53;;;22.20;99.90;;;;;;5056756;28;20041;-42
2023/07/13 08:34:50;;;;;;;5.85;5.32;;;22.30;99.90;;;;;;5040006;28;20056;-41
2023/07/13 08:37:18;;;;;;;7.65;5.47;;;22.10;99.90;;;;;;5060343;28;20048;-45
2023/07/13 08:39:46;;;;;;;7.15;5.10;;;22.10;99.90;;;;;;5063116;28;20048;-44
2023/07/13 08:42:25;;;;;;;8.38;5.57;;;22.10;99.90;;;;;;5035933;28;20044;-42
2023/07/13 08:44:55;;;;;;;8.45;5.32;;;22.10;99.90;;;;;;5059026;28;20071;-44
2023/07/13 08:47:24;;;;;;;6.00;4.90;;;22.20;99.90;;;;;;5054263;28;20427;-42
2023/07/13 08:49:53;;;;;;;7.05;5.20;;;22.10;99.90;;;;;;5059755;28;20037;-45
2023/07/13 08:52:36;;;;;;;6.07;5.20;;;22.20;99.90;;;;;;5057115;28;20441;-44
2023/07/13 08:55:22;;;;;;;6.65;5.35;;;22.40;99.90;;;;;;5061452;28;20056;-42
2023/07/13 08:57:56;;;;;;;8.07;5.45;;;22.60;99.90;;;;;;5060431;28;20068;-42
2023/07/13 09:00:31;;;;;;;5.65;4.95;;;22.40;99.90;;;;;;5058714;28;20071;-41
2023/07/13 09:03:00;;;;;;;8.13;5.40;;;22.40;99.90;;;;;;5050941;28;20506;-45
2023/07/13 09:05:41;;;;;;;5.68;5.18;;;22.20;99.90;;;;;;5060283;28;20058;-42
2023/07/13 09:08:15;;;;;;;6.63;5.57;;;22.40;99.90;;;;;;5059545;28;20559;-42
2023/07/13 09:10:43;;;;;;;6.18;5.57;;;22.40;99.90;;;;;;5060355;28;20071;-42
2023/07/13 09:13:46;;;;;;;6.20;5.10;;;22.50;99.90;;;;;;5057131;28;20475;-45
2023/07/13 09:16:14;;;;;;;6.13;5.40;;;22.50;99.90;;;;;;4963389;28;20606;-45
2023/07/13 09:18:46;;;;;;;11.23;5.45;;;22.60;99.90;;;;;;4964643;28;20102;-45
2023/07/13 09:21:31;;;;;;;6.57;5.75;;;22.60;99.90;;;;;;4963507;28;20081;-44
2023/07/13 09:24:22;;;;;;;5.95;5.20;;;22.60;99.90;;;;;;4963965;28;20399;-41
2023/07/13 09:26:50;;;;;;;6.53;5.70;;;22.70;99.90;;;;;;4962577;28;20059;-44
2023/07/13 09:29:34;;;;;;;6.20;5.60;;;22.70;99.90;;;;;;4971707;28;20042;-44
2023/07/13 09:32:06;;;;;;;6.07;5.45;;;22.70;99.90;;;;;;4969752;28;20051;-43
2023/07/13 09:34:33;;;;;;;6.00;5.40;;;22.90;99.90;;;;;;4965184;28;20122;-43
2023/07/13 09:37:01;;;;;;;7.57;5.15;;;23.20;99.90;;;;;;4965593;28;20061;-43
2023/07/13 09:39:35;;;;;;;7.43;5.50;;;23.20;99.30;;;;;;4960001;28;20074;-42
2023/07/13 09:42:11;;;;;;;7.47;5.40;;;23.20;97.20;;;;;;4965225;28;20042;-44
2023/07/13 09:44:49;;;;;;;5.90;5.30;;;23.20;96.40;;;;;;4965657;28;20133;-48
2023/07/13 09:47:27;;;;;;;6.35;5.32;;;23.40;96.10;;;;;;4965645;28;20098;-47
2023/07/13 09:50:03;;;;;;;5.72;5.22;;;23.40;95.80;;;;;;4966552;28;20499;-45
2023/07/13 09:52:48;;;;;;;7.30;5.45;;;23.50;95.00;;;;;;4998189;28;20112;-43
2023/07/13 09:55:36;;;;;;;5.97;5.30;;;23.60;94.20;;;;;;5050683;28;20107;-39
2023/07/13 09:58:16;;;;;;;6.72;5.80;;;23.70;93.60;;;;;;5054876;28;20103;-41
2023/07/13 10:00:57;;;;;;;6.38;5.57;;;23.80;93.10;;;;;;5055219;28;20504;-42
2023/07/13 10:03:37;;;;;;;4.40;4.00;;;23.90;93.00;;;;;;5052893;28;20057;-43
2023/07/13 10:06:28;;;;;;;7.15;5.90;;;24.00;93.10;;;;;;5057372;28;20382;-43
2023/07/13 10:08:57;;;;;;;6.07;5.45;;;24.10;92.30;;;;;;5055770;28;20122;-43
2023/07/13 10:11:29;;;;;;;7.05;5.60;;;24.20;92.70;;;;;;5051210;28;20044;-45
2023/07/13 10:14:02;;;;;;;6.78;5.32;;;24.10;92.00;;;;;;5056908;28;20390;-41
2023/07/13 10:16:33;;;;;;;5.85;5.35;;;24.00;91.60;;;;;;5055906;28;20563;-41
2023/07/13 10:19:15;;;;;;;5.82;5.20;;;24.10;91.40;;;;;;5057173;28;20554;-40
2023/07/13 10:21:59;;;;;;;7.72;5.80;;;24.20;91.50;;;;;;5053442;28;20493;-40
2023/07/13 10:24:38;;;;;;;6.18;5.60;;;24.40;91.70;;;;;;5053383;28;20115;-43
2023/07/13 10:27:25;;;;;;;6.43;5.80;;;24.70;91.50;;;;;;5062942;28;20041;-40
2023/07/13 10:30:22;;;;;;;6.85;5.63;;;25.00;90.80;;;;;;5056044;28;20481;-43
2023/07/13 10:32:50;;;;;;;6.47;5.47;;;24.80;90.60;;;;;;5056629;28;20404;-43
2023/07/13 10:35:19;;;;;;;7.78;6.18;;;24.70;90.10;;;;;;5051111;28;20060;-45
2023/07/13 10:38:06;;;;;;;7.15;5.78;;;24.60;90.20;;;;;;5055874;28;20522;-40
2023/07/13 10:41:05;;;;;;;6.78;6.18;;;24.90;90.00;;;;;;5050943;28;20049;-43
2023/07/13 10:43:41;;;;;;;8.43;5.63;;;25.00;90.20;;;;;;5061211;28;20045;-45
2023/07/13 10:46:12;;;;;;;6.75;6.05;;;25.30;90.30;;;;;;5058382;28;20379;-44
2023/07/13 10:48:43;;;;;;;6.97;5.43;;;25.40;88.70;;;;;;5058035;28;20064;-46
2023/07/13 10:51:14;;;;;;;6.20;5.60;;;25.40;88.10;;;;;;5057953;28;20420;-42
2023/07/13 10:53:42;;;;;;;6.35;5.63;;;25.50;88.10;;;;;;5058496;28;20066;-41
2023/07/13 10:56:28;;;;;;;6.00;5.40;;;25.70;86.30;;;;;;5052697;28;20529;-44
2023/07/13 10:59:14;;;;;;;6.97;5.70;;;26.20;86.70;;;;;;5057205;28;20575;-43
2023/07/13 11:01:56;;;;;;;8.35;5.13;;;26.40;85.10;;;;;;5053117;28;20047;-42
2023/07/13 11:04:25;;;;;;;6.57;5.97;;;26.80;84.40;;;;;;5057482;28;20044;-45
2023/07/13 11:07:18;;;;;;;6.20;5.55;;;26.70;84.40;;;;;;5052799;28;20063;-43
2023/07/13 11:09:50;;;;;;;10.38;6.07;;;26.10;84.70;;;;;;5051149;28;20040;-41
2023/07/13 11:12:27;;;;;;;6.43;5.40;;;26.30;85.10;;;;;;5055871;28;20513;-41
2023/07/13 11:14:54;;;;;;;6.85;5.70;;;26.00;85.10;;;;;;5056765;28;20412;-41
2023/07/13 11:17:27;;;;;;;6.13;5.47;;;25.80;85.50;;;;;;5058199;28;20512;-42
2023/07/13 11:20:12;;;;;;;7.03;5.60;;;26.10;83.80;;;;;;5061716;28;20064;-45
2023/07/13 11:22:47;;;;;;;8.10;5.68;;;26.20;83.00;;;;;;5054437;28;20045;-42
2023/07/13 11:25:26;;;;;;;6.32;5.20;;;26.30;82.50;;;;;;5061640;28;20475;-39
2023/07/13 11:28:17;;;;;;;7.38;5.22;;;26.60;81.90;;;;;;5061181;28;20048;-41
2023/07/13 11:30:52;;;;;;;6.37;5.87;;;27.10;82.40;;;;;;5059884;28;20123;-43
2023/07/13 11:33:22;;;;;;;6.47;5.70;;;27.60;78.10;;;;;;5053887;28;20051;-41
2023/07/13 11:36:21;;;;;;;7.22;5.43;;;27.40;78.40;;;;;;5059617;28;20044;-42
2023/07/13 11:39:00;;;;;;;8.38;5.35;;;27.30;79.10;;;;;;5057143;28;20060;-41
2023/07/13 11:41:32;;;;;;;7.07;5.60;;;27.50;79.50;;;;;;5053533;28;20466;-40
2023/07/13 11:44:17;;;;;;;6.70;5.70;;;27.50;79.30;;;;;;5058172;28;20523;-43
2023/07/13 11:46:47;;;;;;;6.60;5.22;;;27.50;80.40;;;;;;5058225;28;20057;-43
2023/07/13 11:49:21;;;;;;;6.13;5.50;;;27.40;79.00;;;;;;5055924;28;20431;-41
2023/07/13 11:51:55;;;;;;;6.45;5.72;;;27.40;78.20;;;;;;5058880;28;20053;-42
2023/07/13 11:54:50;;;;;;;8.25;5.30;;;27.40;79.20;;;;;;5056467;28;20099;-42
2023/07/13 11:57:18;;;;;;;6.07;5.43;;;27.70;77.70;;;;;;5054997;28;20098;-44
2023/07/13 11:59:45;;;;;;;7.68;5.32;;;27.60;77.90;;;;;;5060208;28;20119;-41
2023/07/13 12:02:28;;;;;;;5.60;5.03;;;27.20;78.70;;;;;;5060502;28;20064;-44
2023/07/13 12:04:55;;;;;;;8.30;5.43;;;26.70;79.50;;;;;;5058516;28;20429;-42
2023/07/13 12:07:23;;;;;;;8.30;5.18;;;26.80;80.60;;;;;;5061449;28;20041;-44
2023/07/13 12:09:50;;;;;;;5.80;5.20;;;26.80;80.10;;;;;;5065247;28;20067;-44
2023/07/13 12:12:21;;;;;;;6.88;5.30;;;26.80;80.60;;;;;;5058320;28;20048;-43
2023/07/13 12:14:52;;;;;;;5.93;5.40;;;26.70;80.40;;;;;;5052950;28;20095;-46
2023/07/13 12:17:22;;;;;;;8.07;5.47;;;27.00;78.80;;;;;;5058891;28;20075;-40
2023/07/13 12:19:51;;;;;;;7.82;5.10;;;27.30;78.50;;;;;;5050687;28;20832;-45
2023/07/13 12:22:20;;;;;;;6.32;5.32;;;27.70;78.80;;;;;;5056320;28;20094;-42
2023/07/13 12:24:48;;;;;;;7.00;6.20;;;28.90;77.30;;;;;;5057215;28;20041;-45
2023/07/13 12:27:25;;;;;;;6.63;6.00;;;29.10;74.90;;;;;;5062661;28;20418;-45
2023/07/13 12:30:21;;;;;;;6.88;5.68;;;28.80;74.40;;;;;;5059460;28;20044;-41
2023/07/13 12:33:12;;;;;;;8.75;5.65;;;29.20;74.30;;;;;;5057327;28;20079;-42
2023/07/13 12:36:00;;;;;;;8.70;6.22;;;30.20;73.70;;;;;;5057559;28;20037;-47
2023/07/13 12:38:27;;;;;;;6.15;5.65;;;30.70;71.40;;;;;;5052018;28;20124;-42
2023/07/13 12:40:55;;;;;;;6.35;5.75;;;30.70;69.90;;;;;;5055614;28;20055;-41
2023/07/13 12:43:23;;;;;;;6.72;6.10;;;31.20;69.40;;;;;;5056041;28;20039;-43
2023/07/13 12:46:04;;;;;;;6.50;5.90;;;30.90;69.70;;;;;;5060682;28;20127;-44
2023/07/13 12:48:39;;;;;;;7.93;5.95;;;30.30;69.20;;;;;;5055843;28;20460;-42
2023/07/13 12:51:15;;;;;;;7.53;5.50;;;29.40;71.40;;;;;;5052857;28;20110;-43
2023/07/13 12:53:59;;;;;;;6.55;5.70;;;28.80;71.30;;;;;;5056123;28;20094;-42
2023/07/13 12:56:30;;;;;;;7.35;5.68;;;28.30;72.20;;;;;;5056470;28;20082;-40
2023/07/13 12:59:01;;;;;;;6.97;6.00;;;28.00;72.80;;;;;;5050339;28;20069;-43
2023/07/13 13:01:31;;;;;;;;;;;27.60;73.90;;;;;;5059023;28;20345;-39
2023/07/13 13:04:04;;;;;;;6.43;5.55;;;27.60;73.10;;;;;;5055837;28;20447;-40
2023/07/13 13:06:31;;;;;;;7.22;5.28;;;28.00;73.00;;;;;;5057756;28;20051;-42
2023/07/13 13:08:59;;;;;;;5.90;5.30;;;28.70;71.80;;;;;;5057279;28;20041;-41
2023/07/13 13:11:29;;;;;;;6.22;5.10;;;29.30;71.50;;;;;;5049880;28;20412;-43